Cruise inventory

HMS Roebuck INTIMATE98

Cruise plan

Cruise Info. 
Ship name (ship code)HMS Roebuck (74RB)
Cruise identifierINTIMATE98
Cruise period1998-07-06 — 1998-07-10
StatusCompleted
Data held at BODC 
Series/Profiles 
122  CTD/STD cast
Reference numbers
Date and time
Vertical spatial coordinates
Salinity of the water column
Temperature of the water column
Reference numbers
Date and time
Vertical spatial coordinates
Salinity of the water column
Temperature of the water column

BODC idDate/TimeLocationDoc.
5182591998-07-07 05:30  — 1998-07-07 05:33:49 47° 11' 42" N  5° 13' 29" W  View metadata report for BODC series reference number 518259
5182601998-07-07 05:58  — 1998-07-07 06:01:34 47° 11' 42" N  5° 13' 29" W  View metadata report for BODC series reference number 518260
5182721998-07-07 06:26  — 1998-07-07 06:29:25 47° 11' 42" N  5° 13' 29" W  View metadata report for BODC series reference number 518272
5182841998-07-07 07:03  — 1998-07-07 07:06:27 47° 11' 42" N  5° 13' 29" W  View metadata report for BODC series reference number 518284
5182961998-07-07 07:30:59  — 1998-07-07 07:34:41 47° 11' 42" N  5° 13' 29" W  View metadata report for BODC series reference number 518296
5183031998-07-07 08:03  — 1998-07-07 08:06:33 47° 11' 42" N  5° 13' 29" W  View metadata report for BODC series reference number 518303
5183151998-07-07 08:30  — 1998-07-07 08:31:07 47° 11' 42" N  5° 13' 29" W  View metadata report for BODC series reference number 518315
5183271998-07-07 08:58  — 1998-07-07 09:01:40 47° 11' 42" N  5° 13' 29" W  View metadata report for BODC series reference number 518327
5183391998-07-07 09:29  — 1998-07-07 09:32:25 47° 11' 42" N  5° 13' 29" W  View metadata report for BODC series reference number 518339
5183401998-07-07 09:59  — 1998-07-07 10:02:14 47° 11' 42" N  5° 13' 29" W  View metadata report for BODC series reference number 518340
5183521998-07-07 10:45  — 1998-07-07 10:48:01 47° 11' 42" N  5° 13' 29" W  View metadata report for BODC series reference number 518352
5183641998-07-07 11:10  — 1998-07-07 11:13:18 47° 11' 42" N  5° 13' 29" W  View metadata report for BODC series reference number 518364
5183761998-07-07 11:43  — 1998-07-07 11:46:16 47° 11' 42" N  5° 13' 29" W  View metadata report for BODC series reference number 518376
5183881998-07-07 12:12  — 1998-07-07 12:15:13 47° 11' 42" N  5° 13' 29" W  View metadata report for BODC series reference number 518388
5184071998-07-07 12:42  — 1998-07-07 12:44:56 47° 11' 42" N  5° 13' 29" W  View metadata report for BODC series reference number 518407
5184191998-07-07 13:44  — 1998-07-07 13:47:15 47° 11' 42" N  5° 13' 29" W  View metadata report for BODC series reference number 518419
5184201998-07-07 13:13  — 1998-07-07 13:16:54 47° 11' 42" N  5° 13' 29" W  View metadata report for BODC series reference number 518420
5184321998-07-07 14:14  — 1998-07-07 14:17:14 47° 11' 42" N  5° 13' 29" W  View metadata report for BODC series reference number 518432
5184441998-07-07 15:13  — 1998-07-07 15:15:59 47° 11' 42" N  5° 13' 29" W  View metadata report for BODC series reference number 518444
5184561998-07-07 14:43  — 1998-07-07 14:46:13 47° 11' 42" N  5° 13' 29" W  View metadata report for BODC series reference number 518456
5184681998-07-07 15:45  — 1998-07-07 15:48:34 47° 11' 42" N  5° 13' 29" W  View metadata report for BODC series reference number 518468
5184811998-07-07 16:14  — 1998-07-07 16:16:53 47° 11' 42" N  5° 13' 29" W  View metadata report for BODC series reference number 518481
5184931998-07-07 16:44  — 1998-07-07 16:47:16 47° 11' 42" N  5° 13' 29" W  View metadata report for BODC series reference number 518493
5185001998-07-07 17:13  — 1998-07-07 17:16:03 47° 11' 42" N  5° 13' 29" W  View metadata report for BODC series reference number 518500
5185121998-07-07 17:45  — 1998-07-07 17:48:19 47° 11' 42" N  5° 13' 29" W  View metadata report for BODC series reference number 518512
5185241998-07-07 18:17  — 1998-07-07 18:20:07 47° 11' 42" N  5° 13' 29" W  View metadata report for BODC series reference number 518524
5185361998-07-07 18:45  — 1998-07-07 18:48:09 47° 11' 42" N  5° 13' 29" W  View metadata report for BODC series reference number 518536
5185481998-07-07 19:16  — 1998-07-07 19:19:06 47° 11' 42" N  5° 13' 29" W  View metadata report for BODC series reference number 518548
5185611998-07-07 19:48  — 1998-07-07 19:51:32 47° 11' 42" N  5° 13' 29" W  View metadata report for BODC series reference number 518561
5185731998-07-07 20:16  — 1998-07-07 20:19:48 47° 11' 42" N  5° 13' 29" W  View metadata report for BODC series reference number 518573
5185851998-07-07 20:46  — 1998-07-07 20:49:32 47° 11' 42" N  5° 13' 29" W  View metadata report for BODC series reference number 518585
5185971998-07-07 21:27  — 1998-07-07 21:30:21 47° 11' 42" N  5° 13' 29" W  View metadata report for BODC series reference number 518597
5186041998-07-07 21:45  — 1998-07-07 21:48:12 47° 11' 42" N  5° 13' 29" W  View metadata report for BODC series reference number 518604
5186161998-07-07 22:14  — 1998-07-07 22:17:04 47° 11' 42" N  5° 13' 29" W  View metadata report for BODC series reference number 518616
5186281998-07-07 22:45  — 1998-07-07 22:48:10 47° 11' 42" N  5° 13' 29" W  View metadata report for BODC series reference number 518628
5186411998-07-07 23:14  — 1998-07-07 23:17:11 47° 11' 42" N  5° 13' 29" W  View metadata report for BODC series reference number 518641
5186531998-07-07 23:44  — 1998-07-07 23:47:01 47° 11' 42" N  5° 13' 29" W  View metadata report for BODC series reference number 518653
5186651998-07-08 00:14  — 1998-07-08 00:17:07 47° 11' 42" N  5° 13' 29" W  View metadata report for BODC series reference number 518665
5186771998-07-08 01:13  — 1998-07-08 01:15:57 47° 11' 42" N  5° 13' 29" W  View metadata report for BODC series reference number 518677
5186891998-07-08 00:44  — 1998-07-08 00:47:31 47° 11' 42" N  5° 13' 29" W  View metadata report for BODC series reference number 518689
5186901998-07-08 02:12  — 1998-07-08 02:14:58 47° 7' 59" N  5° 19' 0" W  View metadata report for BODC series reference number 518690
5187081998-07-08 02:41  — 1998-07-08 02:43:57 47° 7' 59" N  5° 19' 0" W  View metadata report for BODC series reference number 518708
5187211998-07-08 03:14  — 1998-07-08 03:17:14 47° 7' 59" N  5° 19' 0" W  View metadata report for BODC series reference number 518721
5187331998-07-08 03:45  — 1998-07-08 03:47:58 47° 7' 59" N  5° 19' 0" W  View metadata report for BODC series reference number 518733
5187451998-07-08 04:13  — 1998-07-08 04:16:16 47° 7' 59" N  5° 19' 0" W  View metadata report for BODC series reference number 518745
5187571998-07-08 04:44  — 1998-07-08 04:47:09 47° 7' 59" N  5° 19' 0" W  View metadata report for BODC series reference number 518757
5187691998-07-08 05:14  — 1998-07-08 05:17:15 47° 7' 59" N  5° 19' 0" W  View metadata report for BODC series reference number 518769
5187701998-07-08 05:43  — 1998-07-08 05:46:24 47° 7' 59" N  5° 19' 0" W  View metadata report for BODC series reference number 518770
5187821998-07-08 06:18  — 1998-07-08 06:21:28 47° 7' 59" N  5° 19' 0" W  View metadata report for BODC series reference number 518782
5187941998-07-08 06:45:59  — 1998-07-08 06:49:16 47° 7' 59" N  5° 19' 0" W  View metadata report for BODC series reference number 518794
5188011998-07-08 07:17  — 1998-07-08 07:20:30 47° 7' 59" N  5° 19' 0" W  View metadata report for BODC series reference number 518801
5188131998-07-08 07:46  — 1998-07-08 07:49:32 47° 7' 59" N  5° 19' 0" W  View metadata report for BODC series reference number 518813
5188251998-07-08 08:15:59  — 1998-07-08 08:19:30 47° 7' 59" N  5° 19' 0" W  View metadata report for BODC series reference number 518825
5188371998-07-08 08:44  — 1998-07-08 08:47:32 47° 7' 59" N  5° 19' 0" W  View metadata report for BODC series reference number 518837
5188491998-07-08 09:16  — 1998-07-08 09:19:17 47° 7' 59" N  5° 19' 0" W  View metadata report for BODC series reference number 518849
5188501998-07-08 09:48  — 1998-07-08 09:51:32 47° 7' 59" N  5° 19' 0" W  View metadata report for BODC series reference number 518850
5188621998-07-08 10:15  — 1998-07-08 10:18:03 47° 7' 59" N  5° 19' 0" W  View metadata report for BODC series reference number 518862
5188741998-07-08 10:48  — 1998-07-08 10:51:12 47° 7' 59" N  5° 19' 0" W  View metadata report for BODC series reference number 518874
5188861998-07-08 11:15  — 1998-07-08 11:18:14 47° 7' 59" N  5° 19' 0" W  View metadata report for BODC series reference number 518886
5188981998-07-08 11:45  — 1998-07-08 11:48:43 47° 7' 59" N  5° 19' 0" W  View metadata report for BODC series reference number 518898
5189051998-07-08 12:14  — 1998-07-08 12:16:47 47° 7' 59" N  5° 19' 0" W  View metadata report for BODC series reference number 518905
5189171998-07-08 12:43  — 1998-07-08 12:45:57 47° 7' 59" N  5° 19' 0" W  View metadata report for BODC series reference number 518917
5189291998-07-08 13:13  — 1998-07-08 13:16:04 47° 7' 59" N  5° 19' 0" W  View metadata report for BODC series reference number 518929
5189301998-07-08 13:45  — 1998-07-08 13:48:04 47° 7' 59" N  5° 19' 0" W  View metadata report for BODC series reference number 518930
5189421998-07-08 14:13  — 1998-07-08 14:16:21 47° 7' 59" N  5° 19' 0" W  View metadata report for BODC series reference number 518942
5189541998-07-08 14:42  — 1998-07-08 14:45:16 47° 7' 59" N  5° 19' 0" W  View metadata report for BODC series reference number 518954
5189661998-07-08 15:13  — 1998-07-08 15:15:49 47° 7' 59" N  5° 19' 0" W  View metadata report for BODC series reference number 518966
5189781998-07-08 15:43  — 1998-07-08 15:46:07 47° 7' 59" N  5° 19' 0" W  View metadata report for BODC series reference number 518978
5189911998-07-08 16:12  — 1998-07-08 16:15:15 47° 7' 59" N  5° 19' 0" W  View metadata report for BODC series reference number 518991
5190051998-07-08 16:45  — 1998-07-08 16:48:21 47° 7' 59" N  5° 19' 0" W  View metadata report for BODC series reference number 519005
5190171998-07-09 09:15  — 1998-07-09 09:18:47 47° 12' 9" N  5° 16' 26" W  View metadata report for BODC series reference number 519017
5190291998-07-09 13:43  — 1998-07-09 13:46:09 47° 12' 9" N  5° 16' 26" W  View metadata report for BODC series reference number 519029
5190301998-07-09 14:15  — 1998-07-09 14:18:07 47° 12' 9" N  5° 16' 26" W  View metadata report for BODC series reference number 519030
5190421998-07-09 14:43  — 1998-07-09 14:46:22 47° 12' 9" N  5° 16' 26" W  View metadata report for BODC series reference number 519042
5190541998-07-09 15:13  — 1998-07-09 15:16:18 47° 12' 9" N  5° 16' 26" W  View metadata report for BODC series reference number 519054
5190661998-07-09 15:44  — 1998-07-09 15:47:06 47° 12' 9" N  5° 16' 26" W  View metadata report for BODC series reference number 519066
5190781998-07-09 16:14  — 1998-07-09 16:17:04 47° 12' 9" N  5° 16' 26" W  View metadata report for BODC series reference number 519078
5190911998-07-09 16:42  — 1998-07-09 16:44:46 47° 12' 9" N  5° 16' 26" W  View metadata report for BODC series reference number 519091
5191091998-07-09 17:12  — 1998-07-09 17:14:58 47° 12' 9" N  5° 16' 26" W  View metadata report for BODC series reference number 519109
5191101998-07-09 17:43  — 1998-07-09 17:46:14 47° 12' 9" N  5° 16' 26" W  View metadata report for BODC series reference number 519110
5191221998-07-09 18:17  — 1998-07-09 18:19:59 47° 12' 9" N  5° 16' 26" W  View metadata report for BODC series reference number 519122
5191341998-07-09 09:48  — 1998-07-09 09:51:18 47° 12' 9" N  5° 16' 26" W  View metadata report for BODC series reference number 519134
5191461998-07-09 18:46  — 1998-07-09 18:48:58 47° 12' 9" N  5° 16' 26" W  View metadata report for BODC series reference number 519146
5191581998-07-09 19:16  — 1998-07-09 19:19:05 47° 12' 9" N  5° 16' 26" W  View metadata report for BODC series reference number 519158
5191711998-07-09 19:46  — 1998-07-09 19:48:56 47° 12' 9" N  5° 16' 26" W  View metadata report for BODC series reference number 519171
5191831998-07-09 20:15  — 1998-07-09 20:18:05 47° 12' 9" N  5° 16' 26" W  View metadata report for BODC series reference number 519183
5191951998-07-09 20:45  — 1998-07-09 20:48:09 47° 12' 9" N  5° 16' 26" W  View metadata report for BODC series reference number 519195
5192021998-07-09 21:17  — 1998-07-09 21:20:20 47° 12' 9" N  5° 16' 26" W  View metadata report for BODC series reference number 519202
5192141998-07-09 21:46  — 1998-07-09 21:49:04 47° 12' 9" N  5° 16' 26" W  View metadata report for BODC series reference number 519214
5192261998-07-09 22:16  — 1998-07-09 22:19:09 47° 12' 9" N  5° 16' 26" W  View metadata report for BODC series reference number 519226
5192381998-07-09 22:45  — 1998-07-09 22:48:20 47° 12' 9" N  5° 16' 26" W  View metadata report for BODC series reference number 519238
5192511998-07-09 23:16  — 1998-07-09 23:19:10 47° 12' 9" N  5° 16' 26" W  View metadata report for BODC series reference number 519251
5192631998-07-09 10:14  — 1998-07-09 10:17:21 47° 12' 9" N  5° 16' 26" W  View metadata report for BODC series reference number 519263
5192751998-07-09 23:44  — 1998-07-09 23:47:14 47° 12' 9" N  5° 16' 26" W  View metadata report for BODC series reference number 519275
5192871998-07-10 00:14  — 1998-07-10 00:17:18 47° 12' 9" N  5° 16' 26" W  View metadata report for BODC series reference number 519287
5192991998-07-10 00:44  — 1998-07-10 00:47:13 47° 12' 9" N  5° 16' 26" W  View metadata report for BODC series reference number 519299
5193061998-07-10 01:15  — 1998-07-10 01:18:06 47° 12' 9" N  5° 16' 26" W  View metadata report for BODC series reference number 519306
5193181998-07-10 01:43  — 1998-07-10 01:46:05 47° 12' 9" N  5° 16' 26" W  View metadata report for BODC series reference number 519318
5193311998-07-10 02:45  — 1998-07-10 02:48:17 47° 12' 9" N  5° 16' 26" W  View metadata report for BODC series reference number 519331
5193431998-07-10 03:16  — 1998-07-10 03:19:16 47° 12' 9" N  5° 16' 26" W  View metadata report for BODC series reference number 519343
5193551998-07-10 03:45:59  — 1998-07-10 03:49:08 47° 12' 9" N  5° 16' 26" W  View metadata report for BODC series reference number 519355
5193671998-07-10 04:15  — 1998-07-10 04:18:22 47° 12' 9" N  5° 16' 26" W  View metadata report for BODC series reference number 519367
5193791998-07-09 10:46  — 1998-07-09 10:49:28 47° 12' 9" N  5° 16' 26" W  View metadata report for BODC series reference number 519379
5193801998-07-10 04:43  — 1998-07-10 04:46:39 47° 12' 9" N  5° 16' 26" W  View metadata report for BODC series reference number 519380
5193921998-07-10 05:12  — 1998-07-10 05:15:20 47° 12' 9" N  5° 16' 26" W  View metadata report for BODC series reference number 519392
5194111998-07-10 05:44  — 1998-07-10 05:47:07 47° 12' 9" N  5° 16' 26" W  View metadata report for BODC series reference number 519411
5194231998-07-09 11:14  — 1998-07-09 11:17:07 47° 12' 9" N  5° 16' 26" W  View metadata report for BODC series reference number 519423
5194351998-07-09 11:45  — 1998-07-09 11:48:34 47° 12' 9" N  5° 16' 26" W  View metadata report for BODC series reference number 519435
5194471998-07-09 12:14  — 1998-07-09 12:17:07 47° 12' 9" N  5° 16' 26" W  View metadata report for BODC series reference number 519447
5194591998-07-09 12:44  — 1998-07-09 12:47:22 47° 12' 9" N  5° 16' 26" W  View metadata report for BODC series reference number 519459
5194601998-07-09 13:12  — 1998-07-09 13:15:08 47° 12' 9" N  5° 16' 26" W  View metadata report for BODC series reference number 519460
5181311998-07-06 23:59  — 1998-07-07 00:03:20 47° 11' 42" N  5° 13' 29" W  View metadata report for BODC series reference number 518131
5181431998-07-07 00:30  — 1998-07-07 00:33:52 47° 11' 12" N  5° 13' 25" W  View metadata report for BODC series reference number 518143
5181551998-07-07 01:01  — 1998-07-07 01:04:33 47° 11' 42" N  5° 13' 29" W  View metadata report for BODC series reference number 518155
5181671998-07-07 01:32  — 1998-07-07 01:35:52 47° 11' 46" N  5° 13' 24" W  View metadata report for BODC series reference number 518167
5181791998-07-07 01:59  — 1998-07-07 02:03:09 47° 11' 42" N  5° 13' 29" W  View metadata report for BODC series reference number 518179
5181801998-07-07 02:31  — 1998-07-07 02:34:56 47° 11' 42" N  5° 13' 29" W  View metadata report for BODC series reference number 518180
5181921998-07-07 02:57  — 1998-07-07 03:00:30 47° 11' 42" N  5° 13' 29" W  View metadata report for BODC series reference number 518192
5182111998-07-07 03:29  — 1998-07-07 03:32:41 47° 11' 42" N  5° 13' 29" W  View metadata report for BODC series reference number 518211
5182231998-07-07 04:00  — 1998-07-07 04:03:27 47° 11' 42" N  5° 13' 29" W  View metadata report for BODC series reference number 518223
5182351998-07-07 04:31  — 1998-07-07 04:34:41 47° 11' 42" N  5° 13' 29" W  View metadata report for BODC series reference number 518235
5182471998-07-07 04:59  — 1998-07-07 05:02:26 47° 11' 42" N  5° 13' 29" W  View metadata report for BODC series reference number 518247